Time;durP1;ratioP1;P1;durP2;ratioP2;P2;SDS_P1;SDS_P2;PMS_P1;PMS_P2;Temp;Humidity;BMP_temperature;BMP_pressure;BME280_temperature;BME280_humidity;BME280_pressure;Samples;Min_cycle;Max_cycle;Signal;HPM_P1;HPM_P2
2021/06/17 00:01:52;;;;;;;1.43;1.13;;;19.40;98.00;;;;;;5091660;28;20540;-73
2021/06/17 00:04:19;;;;;;;1.93;1.43;;;19.40;98.00;;;;;;5094005;28;20873;-73
2021/06/17 00:06:46;;;;;;;1.60;1.17;;;19.30;98.00;;;;;;5090744;28;20889;-73
2021/06/17 00:09:13;;;;;;;1.60;1.27;;;19.20;98.00;;;;;;5092337;28;20524;-72
2021/06/17 00:11:42;;;;;;;1.70;1.40;;;19.20;98.00;;;;;;5091964;28;20487;-73
2021/06/17 00:14:09;;;;;;;1.80;1.33;;;19.10;98.00;;;;;;5093642;28;20451;-73
2021/06/17 00:16:36;;;;;;;2.57;1.50;;;18.90;98.00;;;;;;5091876;28;20585;-73
2021/06/17 00:19:03;;;;;;;1.60;1.60;;;18.80;98.00;;;;;;5093485;28;20447;-73
2021/06/17 00:21:30;;;;;;;1.60;1.60;;;18.70;98.00;;;;;;5091449;28;20487;-73
2021/06/17 00:23:57;;;;;;;2.80;1.30;;;18.70;98.00;;;;;;5093363;28;20548;-73
2021/06/17 00:26:24;;;;;;;2.30;1.53;;;18.80;98.00;;;;;;5091607;28;20480;-72
2021/06/17 00:28:53;;;;;;;1.20;1.20;;;18.80;98.00;;;;;;5093289;28;20494;-73
2021/06/17 00:31:20;;;;;;;1.87;1.50;;;18.80;98.00;;;;;;5091425;28;20488;-74
2021/06/17 00:33:47;;;;;;;1.73;1.53;;;18.60;98.00;;;;;;5093271;28;20875;-73
2021/06/17 00:36:14;;;;;;;2.10;1.57;;;18.40;98.00;;;;;;5090860;28;20448;-73
2021/06/17 00:38:41;;;;;;;1.40;1.33;;;18.40;98.00;;;;;;5092944;28;20448;-74
2021/06/17 00:41:08;;;;;;;1.60;1.43;;;18.40;98.00;;;;;;5091225;28;20479;-73
2021/06/17 00:43:35;;;;;;;1.80;1.20;;;18.40;98.00;;;;;;5092195;28;20946;-73
2021/06/17 00:46:03;;;;;;;2.33;1.50;;;18.20;98.00;;;;;;5091285;28;20529;-74
2021/06/17 00:48:30;;;;;;;2.13;1.47;;;18.30;98.00;;;;;;5093164;28;20495;-75
2021/06/17 00:51:01;;;;;;;2.37;1.60;;;18.20;98.00;;;;;;5091117;28;21105;-75
2021/06/17 00:53:29;;;;;;;1.77;1.40;;;18.10;98.00;;;;;;5093013;28;20483;-75
2021/06/17 00:55:57;;;;;;;2.07;1.47;;;18.10;98.00;;;;;;5090924;28;20870;-76
2021/06/17 00:58:25;;;;;;;2.33;1.57;;;18.00;98.00;;;;;;5093032;28;20460;-75
2021/06/17 01:00:51;;;;;;;1.30;1.20;;;17.90;98.00;;;;;;5089579;28;21065;-76
2021/06/17 01:03:20;;;;;;;2.17;1.40;;;17.90;98.00;;;;;;5092907;28;20843;-76
2021/06/17 01:05:48;;;;;;;1.77;1.50;;;17.90;98.00;;;;;;5090742;28;20452;-75
2021/06/17 01:08:32;;;;;;;2.50;1.70;;;17.90;98.00;;;;;;5092966;28;20467;-76
2021/06/17 01:11:06;;;;;;;1.50;1.37;;;17.90;98.00;;;;;;5090590;28;20871;-76
2021/06/17 01:13:41;;;;;;;1.60;1.30;;;18.00;98.00;;;;;;5092711;28;20458;-73
2021/06/17 01:16:13;;;;;;;1.60;1.40;;;18.10;98.00;;;;;;5090558;28;20499;-74
2021/06/17 01:18:47;;;;;;;1.60;1.30;;;18.10;98.00;;;;;;5092741;28;20799;-74
2021/06/17 01:21:25;;;;;;;1.50;1.30;;;18.20;98.00;;;;;;5090507;28;20467;-74
2021/06/17 01:24:22;;;;;;;1.60;1.47;;;18.00;98.00;;;;;;5092412;28;20611;-74
2021/06/17 01:27:36;;;;;;;1.40;1.33;;;17.90;98.00;;;;;;5074917;28;20826;-75
2021/06/17 01:30:08;;;;;;;1.40;1.40;;;17.80;98.00;;;;;;5029749;28;20462;-74
2021/06/17 01:32:36;;;;;;;2.00;1.33;;;17.70;98.00;;;;;;5027441;28;20463;-74
2021/06/17 01:35:06;;;;;;;1.70;1.40;;;17.60;98.00;;;;;;5065799;28;20472;-74
2021/06/17 01:37:35;;;;;;;1.30;1.10;;;17.60;98.00;;;;;;5090220;28;20480;-74
2021/06/17 01:40:03;;;;;;;2.20;1.37;;;17.70;98.00;;;;;;5092116;28;20460;-76
2021/06/17 01:42:31;;;;;;;3.30;1.40;;;17.60;98.00;;;;;;5089979;28;20576;-75
2021/06/17 01:45:00;;;;;;;3.10;1.50;;;17.60;98.00;;;;;;5091574;28;20524;-75
2021/06/17 01:47:30;;;;;;;1.67;1.27;;;17.70;98.00;;;;;;5089908;28;20509;-75
2021/06/17 01:49:59;;;;;;;1.50;1.30;;;17.60;98.00;;;;;;5092187;28;20505;-75
2021/06/17 01:52:29;;;;;;;2.30;1.70;;;17.60;98.00;;;;;;5090174;28;20483;-76
2021/06/17 01:54:58;;;;;;;2.40;1.47;;;17.50;98.00;;;;;;5092166;28;20517;-75
2021/06/17 01:57:26;;;;;;;1.37;1.10;;;17.50;98.00;;;;;;5089988;28;20836;-75
2021/06/17 01:59:54;;;;;;;1.90;1.50;;;17.60;98.00;;;;;;5091891;28;20495;-74
2021/06/17 02:02:22;;;;;;;2.00;1.57;;;17.60;98.00;;;;;;5089515;28;20515;-75
2021/06/17 02:04:52;;;;;;;1.30;1.10;;;17.40;98.00;;;;;;5091748;28;20455;-75
2021/06/17 02:07:21;;;;;;;1.40;1.20;;;17.50;98.00;;;;;;5089813;28;20548;-76
2021/06/17 02:09:51;;;;;;;1.70;1.20;;;17.70;98.00;;;;;;5091596;28;20502;-77
2021/06/17 02:12:19;;;;;;;1.80;1.37;;;17.80;98.00;;;;;;5089562;28;20444;-77
2021/06/17 02:14:48;;;;;;;1.50;1.37;;;17.70;98.00;;;;;;5091472;28;20461;-75
2021/06/17 02:17:16;;;;;;;1.63;1.53;;;17.50;98.00;;;;;;5089333;28;20491;-75
2021/06/17 02:19:44;;;;;;;1.50;1.27;;;17.30;98.00;;;;;;5090402;28;20460;-75
2021/06/17 02:22:14;;;;;;;2.20;1.80;;;17.20;98.00;;;;;;5089406;28;20515;-75
2021/06/17 02:24:45;;;;;;;2.80;1.47;;;17.10;98.00;;;;;;5091388;28;20499;-76
2021/06/17 02:27:18;;;;;;;1.60;1.30;;;17.10;98.00;;;;;;5089464;28;20513;-77
2021/06/17 02:29:48;;;;;;;1.70;1.30;;;17.10;98.00;;;;;;5091258;28;20871;-76
2021/06/17 02:32:22;;;;;;;1.40;1.27;;;17.30;98.00;;;;;;5089259;28;20516;-75
2021/06/17 02:34:50;;;;;;;2.27;1.60;;;17.20;98.00;;;;;;5091271;28;20821;-77
2021/06/17 02:37:20;;;;;;;1.50;1.27;;;17.20;98.00;;;;;;5089127;28;20455;-75
2021/06/17 02:39:50;;;;;;;1.30;1.20;;;17.10;98.00;;;;;;5091069;28;20995;-76
2021/06/17 02:42:20;;;;;;;1.97;1.30;;;16.90;98.00;;;;;;5089030;28;20529;-76
2021/06/17 02:44:49;;;;;;;3.43;2.30;;;16.90;98.00;;;;;;5091150;28;20521;-74
2021/06/17 02:47:16;;;;;;;1.57;1.27;;;16.90;98.00;;;;;;5088987;28;20492;-75
2021/06/17 02:49:44;;;;;;;1.80;1.40;;;16.90;98.00;;;;;;5091004;28;20452;-76
2021/06/17 02:52:11;;;;;;;1.80;1.50;;;16.80;98.00;;;;;;5088940;28;21153;-76
2021/06/17 02:54:40;;;;;;;1.70;1.30;;;16.70;98.00;;;;;;5090906;28;20878;-76
2021/06/17 02:57:16;;;;;;;2.27;1.40;;;16.70;98.00;;;;;;5088749;28;20495;-75
2021/06/17 03:00:02;;;;;;;2.83;1.67;;;16.60;98.00;;;;;;5090833;28;20459;-77
2021/06/17 03:02:37;;;;;;;1.70;1.30;;;16.60;98.00;;;;;;5088634;28;20541;-75
2021/06/17 03:05:09;;;;;;;1.30;1.13;;;16.50;98.00;;;;;;5090993;28;20459;-77
2021/06/17 03:07:42;;;;;;;1.20;1.17;;;16.50;98.00;;;;;;5089267;28;20460;-75
2021/06/17 03:10:12;;;;;;;1.90;1.60;;;16.50;98.00;;;;;;5091355;28;20875;-75
2021/06/17 03:12:43;;;;;;;1.90;1.37;;;16.50;98.00;;;;;;5089026;28;20581;-76
2021/06/17 03:15:12;;;;;;;2.07;1.40;;;16.50;98.00;;;;;;5090989;28;20605;-75
2021/06/17 03:17:43;;;;;;;1.70;1.40;;;16.50;98.00;;;;;;5089190;28;20966;-76
2021/06/17 03:20:12;;;;;;;2.30;1.40;;;16.50;98.00;;;;;;5091980;28;21208;-75
2021/06/17 03:22:43;;;;;;;2.07;1.53;;;16.60;98.00;;;;;;5089660;28;20849;-76
2021/06/17 03:25:15;;;;;;;1.60;1.50;;;16.60;98.00;;;;;;5090703;28;20841;-76
2021/06/17 03:27:44;;;;;;;2.37;1.30;;;16.60;98.00;;;;;;5089773;28;20482;-76
2021/06/17 03:30:12;;;;;;;1.70;1.40;;;16.80;98.00;;;;;;5091455;28;20452;-77
2021/06/17 03:32:41;;;;;;;1.30;1.23;;;16.80;98.00;;;;;;5088938;28;20529;-74
2021/06/17 03:35:10;;;;;;;1.97;1.40;;;16.80;98.00;;;;;;5090714;28;20527;-76
2021/06/17 03:37:38;;;;;;;1.77;1.63;;;16.60;98.00;;;;;;5088234;28;20521;-75
2021/06/17 03:40:06;;;;;;;1.60;1.23;;;16.60;98.00;;;;;;5090470;28;20501;-77
2021/06/17 03:42:36;;;;;;;2.20;1.50;;;16.70;98.00;;;;;;5088172;28;20483;-75
2021/06/17 03:45:04;;;;;;;2.13;1.47;;;16.70;98.00;;;;;;5090596;28;20484;-76
2021/06/17 03:47:32;;;;;;;1.30;1.20;;;16.50;98.00;;;;;;5088741;28;20483;-74
2021/06/17 03:50:01;;;;;;;1.47;1.20;;;16.40;98.00;;;;;;5090448;28;20448;-76
2021/06/17 03:52:28;;;;;;;3.10;1.67;;;16.40;98.00;;;;;;5088274;28;20457;-76
2021/06/17 03:54:57;;;;;;;1.40;1.20;;;16.60;98.00;;;;;;5090390;28;20870;-76
2021/06/17 03:57:24;;;;;;;1.90;1.47;;;16.60;98.00;;;;;;5088237;28;20456;-75
2021/06/17 03:59:55;;;;;;;2.13;1.50;;;16.50;98.00;;;;;;5090206;28;20840;-76
2021/06/17 04:02:24;;;;;;;1.47;1.17;;;16.50;98.00;;;;;;5088192;28;20483;-76
2021/06/17 04:04:51;;;;;;;3.10;1.63;;;16.50;98.00;;;;;;5090414;28;20513;-76
2021/06/17 04:07:22;;;;;;;1.73;1.30;;;16.50;98.00;;;;;;5088572;28;20805;-75
2021/06/17 04:09:55;;;;;;;2.27;1.40;;;16.50;98.00;;;;;;5093874;28;20447;-75
2021/06/17 04:12:24;;;;;;;1.53;1.43;;;16.50;98.00;;;;;;5091990;28;20451;-76
2021/06/17 04:14:57;;;;;;;2.67;2.27;;;16.40;98.00;;;;;;5093822;28;20509;-75
2021/06/17 04:17:27;;;;;;;5.73;1.50;;;16.40;98.00;;;;;;5091950;28;20518;-77
2021/06/17 04:20:04;;;;;;;1.83;1.50;;;16.30;98.00;;;;;;5093899;28;20463;-76
2021/06/17 04:22:37;;;;;;;1.20;1.10;;;16.40;98.00;;;;;;5090218;28;20828;-76
2021/06/17 04:25:09;;;;;;;3.00;1.80;;;16.50;98.00;;;;;;5093637;28;20537;-76
2021/06/17 04:27:37;;;;;;;1.80;1.30;;;16.50;98.00;;;;;;5091518;28;20456;-76
2021/06/17 04:30:07;;;;;;;2.13;1.63;;;16.60;98.00;;;;;;5092889;28;20800;-75
2021/06/17 04:32:36;;;;;;;2.90;1.80;;;16.60;98.00;;;;;;5091784;28;20464;-76
2021/06/17 04:35:03;;;;;;;1.77;1.40;;;16.60;98.00;;;;;;5093729;28;20521;-77
2021/06/17 04:37:31;;;;;;;1.73;1.60;;;16.70;98.00;;;;;;5091260;28;20448;-76
2021/06/17 04:40:00;;;;;;;2.17;1.70;;;16.70;98.00;;;;;;5093641;28;20524;-77
2021/06/17 04:42:28;;;;;;;1.87;1.60;;;16.70;98.00;;;;;;5091064;28;20491;-78
2021/06/17 04:44:58;;;;;;;1.40;1.30;;;16.80;98.00;;;;;;5093464;28;20448;-78
2021/06/17 04:47:26;;;;;;;1.30;1.20;;;16.90;98.00;;;;;;5091312;28;20463;-79
2021/06/17 04:49:54;;;;;;;1.87;1.50;;;17.00;98.00;;;;;;5093443;28;20484;-79
2021/06/17 04:52:27;;;;;;;1.90;1.50;;;17.00;98.00;;;;;;5091232;28;20494;-75
2021/06/17 04:54:54;;;;;;;1.73;1.53;;;17.00;98.00;;;;;;5092843;28;20518;-76
2021/06/17 04:57:21;;;;;;;1.43;1.33;;;17.10;98.00;;;;;;5072859;28;20461;-75
2021/06/17 04:59:48;;;;;;;1.70;1.30;;;17.10;98.00;;;;;;5093007;28;20444;-76
2021/06/17 05:02:15;;;;;;;1.60;1.30;;;17.20;98.00;;;;;;5090712;28;20964;-75
2021/06/17 05:04:44;;;;;;;1.57;1.40;;;17.30;98.00;;;;;;5092774;28;20494;-77
2021/06/17 05:07:25;;;;;;;2.53;1.70;;;17.40;98.00;;;;;;5090952;28;20938;-76
2021/06/17 05:12:36;;;;;;;1.70;1.50;;;17.80;98.00;;;;;;5091174;28;20439;-75
2021/06/17 05:15:04;;;;;;;2.10;1.60;;;18.00;98.00;;;;;;5092589;28;20456;-77
2021/06/17 05:17:31;;;;;;;1.70;1.27;;;18.10;98.00;;;;;;5089282;28;20866;-76
2021/06/17 05:20:01;;;;;;;1.30;1.27;;;18.20;98.00;;;;;;5091467;28;20456;-75
2021/06/17 05:22:28;;;;;;;1.63;1.30;;;18.20;98.00;;;;;;5090544;28;20455;-77
2021/06/17 05:24:55;;;;;;;1.50;1.20;;;18.40;98.00;;;;;;5092432;28;20513;-76
2021/06/17 05:27:22;;;;;;;2.13;1.57;;;18.40;98.00;;;;;;5090205;28;20452;-76
2021/06/17 05:29:49;;;;;;;1.90;1.40;;;18.50;98.00;;;;;;5092376;28;20585;-75
2021/06/17 05:32:17;;;;;;;1.30;1.30;;;18.60;98.00;;;;;;5090106;28;20456;-76
2021/06/17 05:34:44;;;;;;;2.43;1.40;;;18.70;98.00;;;;;;5092321;28;20456;-77
2021/06/17 05:37:12;;;;;;;2.57;1.70;;;18.80;98.00;;;;;;5090097;28;20958;-76
2021/06/17 05:39:40;;;;;;;6.30;1.80;;;18.90;98.00;;;;;;5092340;28;20513;-76
2021/06/17 05:42:08;;;;;;;1.97;1.70;;;19.10;98.00;;;;;;5089948;28;20464;-75
2021/06/17 05:44:35;;;;;;;1.97;1.60;;;19.20;98.00;;;;;;5092474;28;20484;-74
2021/06/17 05:47:02;;;;;;;4.00;1.87;;;19.20;98.00;;;;;;5090025;28;20467;-76
2021/06/17 05:49:30;;;;;;;1.60;1.47;;;19.30;98.00;;;;;;5092146;28;20509;-75
2021/06/17 05:51:57;;;;;;;1.30;1.20;;;19.30;98.00;;;;;;5089760;28;20954;-75
2021/06/17 05:54:25;;;;;;;1.60;1.50;;;19.40;98.00;;;;;;5090851;28;20467;-73
2021/06/17 05:56:53;;;;;;;2.17;1.47;;;19.60;98.00;;;;;;5089316;28;20515;-74
2021/06/17 05:59:21;;;;;;;2.90;1.73;;;19.70;98.00;;;;;;5091027;28;20793;-75
2021/06/17 06:01:50;;;;;;;2.70;1.60;;;19.70;98.00;;;;;;5089567;28;20488;-75
2021/06/17 06:04:17;;;;;;;1.50;1.30;;;19.80;98.00;;;;;;5091692;28;20574;-73
2021/06/17 06:06:45;;;;;;;1.30;1.20;;;19.80;98.00;;;;;;5089463;28;20466;-73
2021/06/17 06:09:12;;;;;;;1.93;1.53;;;19.90;98.00;;;;;;5091539;28;20452;-73
2021/06/17 06:11:41;;;;;;;1.93;1.43;;;19.90;98.00;;;;;;5088185;28;20509;-73
2021/06/17 06:14:08;;;;;;;2.20;1.53;;;20.10;98.00;;;;;;5091695;28;20837;-73
2021/06/17 06:16:36;;;;;;;1.70;1.50;;;20.20;98.00;;;;;;5089241;28;20459;-74
2021/06/17 06:19:06;;;;;;;3.30;1.73;;;20.30;98.00;;;;;;5091395;28;20521;-72
2021/06/17 06:21:34;;;;;;;1.30;1.20;;;20.40;98.00;;;;;;5089246;28;20458;-74
2021/06/17 06:24:01;;;;;;;2.43;1.77;;;20.60;98.00;;;;;;5091219;28;20542;-74
2021/06/17 06:26:33;;;;;;;2.93;1.60;;;20.90;98.00;;;;;;5089032;28;20455;-74
2021/06/17 06:29:01;;;;;;;2.27;1.60;;;21.30;98.00;;;;;;5091187;28;20502;-73
2021/06/17 06:31:30;;;;;;;2.27;1.30;;;21.60;98.00;;;;;;5088983;28;20811;-74
2021/06/17 06:33:56;;;;;;;2.50;1.67;;;21.90;98.00;;;;;;5090836;28;20455;-74
2021/06/17 06:36:25;;;;;;;1.80;1.47;;;22.10;98.00;;;;;;5089009;28;20456;-75
2021/06/17 06:38:52;;;;;;;2.73;1.70;;;22.20;98.00;;;;;;5091118;28;20543;-75
2021/06/17 06:41:19;;;;;;;1.70;1.60;;;22.10;98.00;;;;;;5088709;28;20491;-72
2021/06/17 06:43:46;;;;;;;2.77;1.80;;;22.10;98.00;;;;;;5091003;28;20523;-74
2021/06/17 06:46:14;;;;;;;2.13;1.43;;;22.30;98.00;;;;;;5088698;28;20950;-73
2021/06/17 06:48:41;;;;;;;2.33;1.50;;;22.40;98.00;;;;;;5091015;28;20456;-73
2021/06/17 06:51:08;;;;;;;1.57;1.43;;;22.70;98.00;;;;;;5088577;28;20483;-75
2021/06/17 06:53:35;;;;;;;2.03;1.53;;;22.80;98.00;;;;;;5091017;28;20509;-76
2021/06/17 06:56:02;;;;;;;1.80;1.50;;;23.00;98.00;;;;;;5088870;28;20552;-74
2021/06/17 06:58:29;;;;;;;2.00;1.70;;;23.10;98.00;;;;;;5091041;28;21003;-74
2021/06/17 07:00:56;;;;;;;1.50;1.40;;;23.30;98.00;;;;;;5088388;28;20463;-75
2021/06/17 07:03:24;;;;;;;2.17;1.73;;;23.40;98.00;;;;;;5090912;28;21056;-73
2021/06/17 07:05:51;;;;;;;3.20;2.30;;;23.60;97.80;;;;;;5088616;28;20501;-73
2021/06/17 07:08:19;;;;;;;2.20;1.80;;;23.60;97.30;;;;;;5089543;28;20448;-73
2021/06/17 07:10:48;;;;;;;1.60;1.50;;;23.70;97.30;;;;;;5090516;28;20517;-73
2021/06/17 07:13:15;;;;;;;1.97;1.70;;;23.90;96.90;;;;;;5081125;28;20495;-71
2021/06/17 07:15:42;;;;;;;4.53;1.67;;;24.00;96.20;;;;;;5069976;28;20453;-72
2021/06/17 07:18:09;;;;;;;4.00;1.97;;;24.20;97.30;;;;;;5067941;28;20461;-73
2021/06/17 07:20:38;;;;;;;1.43;1.43;;;24.30;96.30;;;;;;5070338;28;20480;-73
2021/06/17 07:23:06;;;;;;;3.40;2.00;;;24.40;95.90;;;;;;5068363;28;20485;-73
2021/06/17 07:25:33;;;;;;;1.60;1.53;;;24.40;96.50;;;;;;5069916;28;20488;-75
2021/06/17 07:28:00;;;;;;;2.20;1.80;;;24.40;96.20;;;;;;5068544;28;20698;-75
2021/06/17 07:30:27;;;;;;;2.20;1.90;;;24.50;94.60;;;;;;5069311;28;20830;-73
2021/06/17 07:32:55;;;;;;;2.20;1.77;;;24.50;95.00;;;;;;5068302;28;20457;-73
2021/06/17 07:35:23;;;;;;;1.70;1.40;;;24.60;94.50;;;;;;5068708;28;20459;-74
2021/06/17 07:37:55;;;;;;;2.10;1.93;;;24.70;95.20;;;;;;5068312;28;20457;-73
2021/06/17 07:40:22;;;;;;;1.80;1.60;;;24.70;94.70;;;;;;5069449;28;20465;-73
2021/06/17 07:42:49;;;;;;;3.53;2.20;;;24.80;94.70;;;;;;5069525;28;20628;-74
2021/06/17 07:45:16;;;;;;;2.30;1.80;;;24.90;95.40;;;;;;5073956;28;20994;-74
2021/06/17 07:47:44;;;;;;;2.03;1.83;;;25.00;95.50;;;;;;5072389;28;20525;-74
2021/06/17 07:50:12;;;;;;;2.50;2.00;;;25.10;93.90;;;;;;5074114;28;20522;-75
2021/06/17 07:52:40;;;;;;;2.20;1.90;;;25.20;93.60;;;;;;5072087;28;20453;-75
2021/06/17 07:55:10;;;;;;;2.60;1.30;;;25.30;93.90;;;;;;5073908;28;20505;-74
2021/06/17 07:57:37;;;;;;;2.80;1.90;;;25.50;94.60;;;;;;5070855;28;20480;-74
2021/06/17 08:00:05;;;;;;;2.47;1.80;;;25.60;92.80;;;;;;5073816;28;21011;-74
2021/06/17 08:02:33;;;;;;;1.77;1.50;;;25.70;91.70;;;;;;5071803;28;20488;-74
2021/06/17 08:05:00;;;;;;;1.83;1.60;;;25.90;92.10;;;;;;5072448;28;20484;-74
2021/06/17 08:07:27;;;;;;;3.30;1.93;;;26.00;90.30;;;;;;5071646;28;20521;-74
2021/06/17 08:09:54;;;;;;;2.43;2.00;;;26.10;90.80;;;;;;5072281;28;20499;-74
2021/06/17 08:12:27;;;;;;;1.50;1.40;;;26.20;89.40;;;;;;5070390;28;20452;-73
2021/06/17 08:14:53;;;;;;;2.17;1.80;;;26.30;89.40;;;;;;5073809;28;20467;-73
2021/06/17 08:17:21;;;;;;;2.20;2.10;;;26.50;90.90;;;;;;5071659;28;20583;-74
2021/06/17 08:19:48;;;;;;;2.23;1.60;;;26.60;88.40;;;;;;5073767;28;20456;-74
2021/06/17 08:22:15;;;;;;;1.80;1.60;;;26.80;89.90;;;;;;5070528;28;20514;-73
2021/06/17 08:24:43;;;;;;;2.03;1.60;;;27.00;90.70;;;;;;5073339;28;20496;-74
2021/06/17 08:27:11;;;;;;;1.53;1.50;;;27.10;89.50;;;;;;5071473;28;20467;-75
2021/06/17 08:29:41;;;;;;;2.10;1.90;;;27.30;88.90;;;;;;5073160;28;20491;-75
2021/06/17 08:32:11;;;;;;;1.80;1.57;;;27.40;87.20;;;;;;5070096;28;20487;-74
2021/06/17 08:34:38;;;;;;;3.93;1.50;;;27.50;86.70;;;;;;5073628;28;20457;-75
2021/06/17 08:37:05;;;;;;;2.70;1.90;;;27.70;86.50;;;;;;5071185;28;20818;-75
2021/06/17 08:39:32;;;;;;;2.90;1.90;;;27.90;85.20;;;;;;5073069;28;20510;-74
2021/06/17 08:42:01;;;;;;;2.73;1.70;;;28.00;84.50;;;;;;5071221;28;20963;-75
2021/06/17 08:44:29;;;;;;;2.10;1.90;;;28.00;85.70;;;;;;5072949;28;20542;-75
2021/06/17 08:46:58;;;;;;;2.47;2.10;;;28.20;85.00;;;;;;5071177;28;20514;-74
2021/06/17 08:49:27;;;;;;;1.80;1.67;;;28.30;83.90;;;;;;5073073;28;20457;-74
2021/06/17 08:51:57;;;;;;;2.33;1.80;;;28.30;83.60;;;;;;5070912;28;20903;-74
2021/06/17 08:54:25;;;;;;;3.10;1.70;;;28.50;84.40;;;;;;5072818;28;20469;-75
2021/06/17 08:56:53;;;;;;;1.83;1.67;;;28.50;83.40;;;;;;5070989;28;20449;-74
2021/06/17 08:59:20;;;;;;;2.23;1.73;;;28.60;82.10;;;;;;5072823;28;20935;-75
2021/06/17 09:02:00;;;;;;;3.07;2.00;;;28.70;82.90;;;;;;5070447;28;20453;-75
2021/06/17 09:04:28;;;;;;;1.97;1.53;;;28.80;83.70;;;;;;5072557;28;20491;-74
2021/06/17 09:07:14;;;;;;;2.00;1.80;;;28.90;81.90;;;;;;5069345;28;20990;-74
2021/06/17 09:09:45;;;;;;;3.20;1.83;;;28.90;82.00;;;;;;5071918;28;20456;-71
2021/06/17 09:12:15;;;;;;;2.00;1.60;;;29.00;80.90;;;;;;5069648;28;21012;-72
2021/06/17 09:14:51;;;;;;;2.43;2.00;;;29.10;81.60;;;;;;5072107;28;20485;-72
2021/06/17 09:17:20;;;;;;;1.70;1.60;;;29.30;83.00;;;;;;5069729;28;20456;-73
2021/06/17 09:19:53;;;;;;;2.07;1.70;;;29.50;79.90;;;;;;5072236;28;20461;-72
2021/06/17 09:22:24;;;;;;;1.60;1.53;;;29.60;78.20;;;;;;5069417;28;20533;-73
2021/06/17 09:24:55;;;;;;;4.00;2.25;;;29.80;80.30;;;;;;5070524;28;20454;-74
2021/06/17 09:27:25;;;;;;;2.93;2.07;;;29.90;79.60;;;;;;5069248;28;20363;-74
2021/06/17 09:29:56;;;;;;;2.80;1.83;;;30.00;78.40;;;;;;5071796;28;20985;-74
2021/06/17 09:32:27;;;;;;;1.60;1.33;;;30.10;77.20;;;;;;5069484;28;20488;-73
2021/06/17 09:34:54;;;;;;;1.93;1.83;;;30.20;78.30;;;;;;5071827;28;20464;-72
2021/06/17 09:37:33;;;;;;;2.13;1.80;;;30.20;78.10;;;;;;5069471;28;20531;-72
2021/06/17 09:40:25;;;;;;;2.10;1.93;;;30.30;78.40;;;;;;5071606;28;20898;-73
2021/06/17 09:42:53;;;;;;;2.50;1.83;;;30.40;78.50;;;;;;5069317;28;20508;-73
2021/06/17 09:45:22;;;;;;;2.60;1.90;;;30.50;77.60;;;;;;5071520;28;20883;-74
2021/06/17 09:47:59;;;;;;;1.70;1.60;;;30.60;76.20;;;;;;5069492;28;20829;-74
2021/06/17 09:50:27;;;;;;;2.07;1.87;;;30.70;76.90;;;;;;5072535;28;20460;-73
2021/06/17 09:52:55;;;;;;;1.97;1.60;;;30.80;75.40;;;;;;5070105;28;20531;-74
2021/06/17 09:55:40;;;;;;;1.93;1.70;;;31.00;74.20;;;;;;5071285;28;20457;-74
2021/06/17 09:58:11;;;;;;;2.23;1.70;;;31.00;72.60;;;;;;5068968;28;20453;-74
2021/06/17 10:00:54;;;;;;;2.67;2.00;;;31.10;73.00;;;;;;5071177;28;20465;-73
2021/06/17 10:03:23;;;;;;;1.80;1.60;;;31.30;75.90;;;;;;5069194;28;20461;-74
2021/06/17 10:05:50;;;;;;;2.00;1.60;;;31.40;73.00;;;;;;5070158;28;20481;-74
2021/06/17 10:08:17;;;;;;;3.07;1.90;;;31.50;72.80;;;;;;5068531;28;20460;-74
2021/06/17 10:10:44;;;;;;;2.97;2.00;;;31.60;71.90;;;;;;5069869;28;20559;-73
2021/06/17 10:13:15;;;;;;;2.50;1.90;;;31.40;70.60;;;;;;5068886;28;20510;-73
2021/06/17 10:15:43;;;;;;;2.43;2.10;;;31.40;72.00;;;;;;5070829;28;20864;-74
2021/06/17 10:18:10;;;;;;;2.00;1.80;;;31.30;74.10;;;;;;5068517;28;20449;-80
2021/06/17 10:20:40;;;;;;;1.90;1.70;;;31.20;75.50;;;;;;5071091;28;21014;-74
2021/06/17 10:23:07;;;;;;;1.60;1.50;;;31.10;72.70;;;;;;5068753;28;20493;-75
2021/06/17 10:25:36;;;;;;;2.83;1.90;;;31.10;73.10;;;;;;5070643;28;20520;-75
2021/06/17 10:28:04;;;;;;;1.90;1.80;;;31.20;73.80;;;;;;5068529;28;20503;-71
2021/06/17 10:30:41;;;;;;;1.90;1.77;;;31.40;71.70;;;;;;5070597;28;20513;-71
2021/06/17 10:33:25;;;;;;;2.23;1.80;;;31.60;70.60;;;;;;5068447;28;20449;-72
2021/06/17 10:36:14;;;;;;;3.10;2.00;;;31.80;70.00;;;;;;5070442;28;20456;-73
2021/06/17 10:39:17;;;;;;;2.40;1.70;;;31.90;70.10;;;;;;5070360;28;20498;-70
2021/06/17 10:42:26;;;;;;;2.00;1.67;;;32.20;72.10;;;;;;5068701;28;20453;-71
2021/06/17 10:44:56;;;;;;;2.43;1.80;;;32.30;69.40;;;;;;5031447;28;20908;-71
2021/06/17 10:47:56;;;;;;;2.20;1.70;;;32.40;67.90;;;;;;5068177;28;20514;-71
2021/06/17 10:50:26;;;;;;;2.33;1.87;;;32.40;71.00;;;;;;5070474;28;20514;-73
2021/06/17 10:53:24;;;;;;;3.53;2.37;;;32.50;68.80;;;;;;5068607;28;20539;-72
2021/06/17 10:55:57;;;;;;;2.23;1.70;;;32.60;66.20;;;;;;5069374;28;20453;-72
2021/06/17 10:59:04;;;;;;;3.10;2.20;;;32.70;68.80;;;;;;5068558;28;20726;-71
2021/06/17 11:01:46;;;;;;;2.43;2.03;;;32.90;67.70;;;;;;5067052;28;20876;-71
2021/06/17 11:04:19;;;;;;;2.30;1.97;;;33.00;68.80;;;;;;5067441;28;20449;-72
2021/06/17 11:07:10;;;;;;;1.90;1.70;;;33.00;67.50;;;;;;5068096;28;20947;-72
2021/06/17 11:09:44;;;;;;;2.13;2.00;;;33.10;67.20;;;;;;5070312;28;20464;-71
2021/06/17 11:12:47;;;;;;;1.77;1.70;;;33.10;67.80;;;;;;5068185;28;20535;-72
2021/06/17 11:15:42;;;;;;;2.13;2.00;;;33.10;64.90;;;;;;5070229;28;20536;-71
2021/06/17 11:18:10;;;;;;;2.33;1.90;;;33.10;67.30;;;;;;5069909;28;20457;-72
2021/06/17 11:20:39;;;;;;;2.53;1.87;;;33.20;66.00;;;;;;5073386;28;20464;-72
2021/06/17 11:23:06;;;;;;;1.70;1.67;;;33.30;67.10;;;;;;5071121;28;20459;-71
2021/06/17 11:25:39;;;;;;;2.90;2.07;;;33.60;66.30;;;;;;5074186;28;20481;-72
2021/06/17 11:28:07;;;;;;;1.90;1.90;;;33.70;65.10;;;;;;5072108;28;21009;-73
2021/06/17 11:31:02;;;;;;;1.60;1.43;;;33.70;64.80;;;;;;5074137;28;21084;-72
2021/06/17 11:33:47;;;;;;;4.23;2.10;;;33.80;65.40;;;;;;5071719;28;20456;-72
2021/06/17 11:36:24;;;;;;;2.37;1.90;;;33.90;66.20;;;;;;5073700;28;20539;-72
2021/06/17 11:38:52;;;;;;;2.33;1.87;;;33.90;63.80;;;;;;5073883;28;20463;-71
2021/06/17 11:41:25;;;;;;;1.87;1.73;;;34.00;63.50;;;;;;5073099;28;20496;-74
2021/06/17 11:44:02;;;;;;;2.27;1.90;;;34.10;65.10;;;;;;5072483;28;20580;-73
2021/06/17 11:46:35;;;;;;;3.10;2.07;;;34.30;63.60;;;;;;5071290;28;20489;-71
2021/06/17 11:49:05;;;;;;;2.00;1.77;;;34.30;61.90;;;;;;5073819;28;20457;-72
2021/06/17 11:51:44;;;;;;;2.20;2.00;;;34.40;62.30;;;;;;5071733;28;20797;-71
2021/06/17 11:54:20;;;;;;;2.17;1.87;;;34.20;61.00;;;;;;5074155;28;20444;-73
2021/06/17 11:56:49;;;;;;;2.40;1.93;;;34.30;61.20;;;;;;5071344;28;20540;-74
2021/06/17 11:59:19;;;;;;;2.53;1.83;;;34.40;59.90;;;;;;5073860;28;20457;-72
2021/06/17 12:02:06;;;;;;;2.93;1.80;;;34.30;60.40;;;;;;5071800;28;20873;-72
2021/06/17 12:04:44;;;;;;;2.47;1.97;;;34.30;61.70;;;;;;5074115;28;20464;-73
2021/06/17 12:07:12;;;;;;;1.70;1.67;;;34.40;65.20;;;;;;5072624;28;20926;-71
2021/06/17 12:09:39;;;;;;;2.13;2.00;;;34.40;60.60;;;;;;5074405;28;20461;-72
2021/06/17 12:12:16;;;;;;;3.20;2.23;;;34.50;62.70;;;;;;5072148;28;20484;-71
2021/06/17 12:14:43;;;;;;;2.50;2.10;;;34.60;59.30;;;;;;5074862;28;20511;-73
2021/06/17 12:17:11;;;;;;;2.30;2.07;;;34.50;57.90;;;;;;5072482;28;20453;-73
2021/06/17 12:19:38;;;;;;;2.50;1.70;;;34.50;60.80;;;;;;5073878;28;20457;-71
2021/06/17 12:22:07;;;;;;;1.90;1.80;;;34.60;60.60;;;;;;5071556;28;20453;-74
2021/06/17 12:24:34;;;;;;;2.03;1.73;;;34.70;58.10;;;;;;5073296;28;20518;-72
2021/06/17 12:27:01;;;;;;;2.17;1.77;;;34.70;58.90;;;;;;5070658;28;20788;-73
2021/06/17 12:29:30;;;;;;;3.40;2.20;;;34.80;55.50;;;;;;5072370;28;20453;-72
2021/06/17 12:31:57;;;;;;;1.70;1.60;;;34.80;58.80;;;;;;5070746;28;20449;-73
2021/06/17 12:34:29;;;;;;;1.97;1.53;;;34.90;58.40;;;;;;5073214;28;20935;-74
2021/06/17 12:37:02;;;;;;;2.90;1.80;;;34.90;56.00;;;;;;5069339;28;21015;-72
2021/06/17 12:39:29;;;;;;;2.50;1.87;;;35.00;57.80;;;;;;5071426;28;20457;-74
2021/06/17 12:41:57;;;;;;;2.60;1.97;;;35.00;59.80;;;;;;5070896;28;20534;-72
2021/06/17 12:44:35;;;;;;;1.90;1.90;;;35.10;56.70;;;;;;5072669;28;20510;-73
2021/06/17 12:47:05;;;;;;;2.13;1.80;;;35.30;57.70;;;;;;5069839;28;20456;-73
2021/06/17 12:52:27;;;;;;;2.23;1.90;;;35.20;54.40;;;;;;5070651;28;20444;-73
2021/06/17 12:54:54;;;;;;;2.40;1.80;;;35.00;57.50;;;;;;5072460;28;21031;-73
2021/06/17 12:57:22;;;;;;;3.13;2.00;;;35.10;56.90;;;;;;5070232;28;20521;-73
2021/06/17 12:59:56;;;;;;;2.00;1.70;;;35.20;55.70;;;;;;5072530;28;20500;-71
2021/06/17 13:02:48;;;;;;;2.40;1.97;;;35.20;57.20;;;;;;5070275;28;20526;-74
2021/06/17 13:05:18;;;;;;;2.70;1.90;;;35.30;56.50;;;;;;5069610;28;20588;-73
2021/06/17 13:08:02;;;;;;;2.07;1.97;;;35.50;56.50;;;;;;5070045;28;20544;-72
2021/06/17 13:10:33;;;;;;;3.77;2.00;;;35.60;56.70;;;;;;5072430;28;20456;-72
2021/06/17 13:13:18;;;;;;;2.43;1.77;;;35.60;57.70;;;;;;5070035;28;20488;-70